createdAt,value
2018-09-13T00:00:33.599Z,8
2018-09-13T00:05:36.208Z,8
2018-09-13T00:10:38.468Z,8
2018-09-13T00:15:40.893Z,8
2018-09-13T00:25:45.765Z,7
2018-09-13T00:30:48.229Z,7
2018-09-13T00:35:50.680Z,7
2018-09-13T00:40:53.094Z,8
2018-09-13T00:45:55.623Z,8
2018-09-13T00:50:58.022Z,8
2018-09-13T00:56:00.494Z,8
2018-09-13T01:01:02.867Z,8
2018-09-13T01:06:05.305Z,8
2018-09-13T01:11:07.737Z,8
2018-09-13T01:16:10.192Z,8
2018-09-13T01:21:12.631Z,8
2018-09-13T01:26:15.082Z,8
2018-09-13T01:31:17.511Z,9
2018-09-13T01:36:19.938Z,8
2018-09-13T01:41:22.373Z,9
2018-09-13T01:46:24.837Z,8
2018-09-13T01:51:27.268Z,8
2018-09-13T01:56:29.721Z,9
2018-09-13T02:01:32.242Z,8
2018-09-13T02:06:34.658Z,8
2018-09-13T02:11:37.025Z,8
2018-09-13T02:16:39.576Z,8
2018-09-13T02:21:41.905Z,8
2018-09-13T02:26:44.367Z,9
2018-09-13T02:31:46.802Z,9
2018-09-13T02:36:49.232Z,9
2018-09-13T02:41:51.672Z,10
2018-09-13T02:46:54.129Z,11
2018-09-13T02:51:56.556Z,12
2018-09-13T02:56:58.998Z,13
2018-09-13T03:02:01.462Z,13
2018-09-13T03:07:03.887Z,14
2018-09-13T03:12:06.327Z,13
2018-09-13T03:17:08.764Z,16
2018-09-13T03:22:11.380Z,14
2018-09-13T03:27:13.645Z,14
2018-09-13T03:32:16.124Z,14
2018-09-13T03:37:18.745Z,14
2018-09-13T03:42:21.015Z,15
2018-09-13T03:47:23.417Z,16
2018-09-13T03:52:25.854Z,17
2018-09-13T03:57:28.313Z,19
2018-09-13T04:02:30.762Z,18
2018-09-13T04:07:33.241Z,19
2018-09-13T04:12:35.685Z,18
2018-09-13T04:17:38.085Z,19
2018-09-13T04:22:40.577Z,20
2018-09-13T04:27:42.965Z,20
2018-09-13T04:32:45.475Z,22
2018-09-13T04:37:47.976Z,22
2018-09-13T04:42:50.255Z,22
2018-09-13T04:47:52.684Z,21
2018-09-13T04:52:55.144Z,23
2018-09-13T04:57:57.609Z,23
2018-09-13T05:03:00.025Z,22
2018-09-13T05:08:02.461Z,22
2018-09-13T05:13:04.981Z,22
2018-09-13T05:18:07.440Z,22
2018-09-13T05:23:09.774Z,22
2018-09-13T05:28:12.241Z,22
2018-09-13T05:33:14.682Z,23
2018-09-13T05:38:17.099Z,22
2018-09-13T05:43:19.534Z,22
2018-09-13T05:48:21.982Z,23
2018-09-13T05:53:24.444Z,26
2018-09-13T05:58:26.863Z,26
2018-09-13T06:03:29.313Z,24
2018-09-13T06:08:31.767Z,24
2018-09-13T06:13:34.264Z,23
2018-09-13T06:18:36.689Z,22
2018-09-13T06:23:39.061Z,23
2018-09-13T06:28:41.543Z,23
2018-09-13T06:33:43.996Z,22
2018-09-13T06:38:46.406Z,20
2018-09-13T06:43:48.829Z,21
2018-09-13T06:48:51.371Z,21
2018-09-13T06:53:53.727Z,21
2018-09-13T06:58:56.231Z,22
2018-09-13T07:09:01.044Z,24
2018-09-13T07:19:06.023Z,23
2018-09-13T07:24:08.380Z,24
2018-09-13T07:29:10.789Z,25
2018-09-13T07:34:13.239Z,24
2018-09-13T07:39:15.690Z,23
2018-09-13T07:44:18.130Z,25
2018-09-13T07:49:20.625Z,24
2018-09-13T07:54:23.035Z,24
2018-09-13T07:59:25.419Z,23
2018-09-13T08:04:27.877Z,21
2018-09-13T08:09:30.601Z,22
2018-09-13T08:14:32.929Z,21
2018-09-13T08:19:35.195Z,21
2018-09-13T08:24:37.662Z,20
2018-09-13T08:29:40.232Z,22
2018-09-13T08:34:42.622Z,20
2018-09-13T08:39:44.993Z,21
2018-09-13T08:44:47.403Z,20
2018-09-13T08:49:49.834Z,21
2018-09-13T08:54:52.629Z,22
2018-09-13T08:59:54.828Z,20
2018-09-13T09:04:57.230Z,20
2018-09-13T09:09:59.613Z,22
2018-09-13T09:15:02.349Z,19
2018-09-13T09:20:04.498Z,19
2018-09-13T09:25:06.937Z,19
2018-09-13T09:30:09.400Z,19
2018-09-13T09:35:11.968Z,19
2018-09-13T09:40:14.317Z,20
2018-09-13T09:45:16.763Z,20
2018-09-13T09:50:19.130Z,19
2018-09-13T09:55:21.575Z,20
2018-09-13T10:00:24.064Z,20
2018-09-13T10:05:26.464Z,20
2018-09-13T10:10:28.932Z,20
2018-09-13T10:15:31.340Z,20
2018-09-13T10:20:33.856Z,20
2018-09-13T10:25:36.250Z,18
2018-09-13T10:30:38.655Z,20
2018-09-13T10:35:41.091Z,20
2018-09-13T10:40:43.647Z,19
2018-09-13T10:45:45.980Z,19
2018-09-13T10:50:48.435Z,19
2018-09-13T10:55:50.988Z,19
2018-09-13T11:00:53.325Z,22
2018-09-13T11:05:55.746Z,22
2018-09-13T11:10:58.398Z,22
2018-09-13T11:16:00.627Z,23
2018-09-13T11:21:03.072Z,23
2018-09-13T11:26:05.510Z,22
2018-09-13T11:31:08.036Z,21
2018-09-13T11:36:10.432Z,22
2018-09-13T11:41:13.689Z,22
2018-09-13T11:46:15.259Z,22
2018-09-13T11:51:17.768Z,21
2018-09-13T11:56:20.152Z,21
2018-09-13T12:01:22.675Z,20
2018-09-13T12:06:25.039Z,23
2018-09-13T12:11:27.502Z,22
2018-09-13T12:16:29.911Z,21
2018-09-13T12:21:32.370Z,22
2018-09-13T12:26:34.795Z,21
2018-09-13T12:31:37.248Z,18
2018-09-13T12:36:39.682Z,16
2018-09-13T12:41:42.159Z,19
2018-09-13T12:46:44.555Z,17
2018-09-13T12:51:47.036Z,17
2018-09-13T12:56:49.578Z,19
2018-09-13T13:01:51.926Z,17
2018-09-13T13:06:54.344Z,17
2018-09-13T13:11:56.786Z,17
2018-09-13T13:16:59.585Z,18
2018-09-13T13:22:01.735Z,17
2018-09-13T13:27:04.118Z,18
2018-09-13T13:32:06.818Z,19
2018-09-13T13:37:08.984Z,18
2018-09-13T13:42:11.429Z,18
2018-09-13T13:47:13.884Z,19
2018-09-13T13:52:16.285Z,19
2018-09-13T13:57:18.951Z,18
2018-09-13T14:02:21.249Z,18
2018-09-13T14:07:23.625Z,19
2018-09-13T14:17:28.504Z,18
2018-09-13T14:22:30.936Z,18
2018-09-13T14:27:33.395Z,17
2018-09-13T14:32:35.816Z,19
2018-09-13T14:37:38.250Z,19
2018-09-13T14:42:40.707Z,20
2018-09-13T14:47:43.377Z,20
2018-09-13T14:52:45.619Z,20
2018-09-13T14:57:48.019Z,20
2018-09-13T15:02:50.559Z,21
2018-09-13T15:07:52.936Z,21
2018-09-13T15:12:55.362Z,20
2018-09-13T15:23:00.241Z,24
2018-09-13T15:28:02.659Z,22
2018-09-13T15:33:05.258Z,23
2018-09-13T15:38:07.560Z,22
2018-09-13T15:43:10.008Z,24
2018-09-13T15:48:12.437Z,23
2018-09-13T15:53:14.887Z,22
2018-09-13T15:58:17.298Z,22
2018-09-13T16:03:19.788Z,22
2018-09-13T16:13:24.663Z,23
2018-09-13T16:18:27.080Z,22
2018-09-13T16:23:29.504Z,24
2018-09-13T16:28:31.942Z,25
2018-09-13T16:33:34.382Z,23
2018-09-13T16:38:36.829Z,24
2018-09-13T16:43:39.287Z,24
2018-09-13T16:48:41.783Z,21
2018-09-13T16:53:44.186Z,23
2018-09-13T16:58:46.596Z,23
2018-09-13T17:03:49.090Z,23
2018-09-13T17:08:52.278Z,26
2018-09-13T17:13:54.438Z,25
2018-09-13T17:18:56.427Z,23
2018-09-13T17:23:58.793Z,23
2018-09-13T17:29:01.250Z,22
2018-09-13T17:34:03.805Z,26
2018-09-13T17:39:06.237Z,27
2018-09-13T17:44:08.766Z,26
2018-09-13T17:54:13.441Z,27
2018-09-13T17:59:15.893Z,25
2018-09-13T18:04:18.321Z,29
2018-09-13T18:09:20.766Z,27
2018-09-13T18:14:23.214Z,27
2018-09-13T18:19:25.646Z,28
2018-09-13T18:24:28.292Z,26
2018-09-13T18:29:30.551Z,25
2018-09-13T18:34:32.953Z,23
2018-09-13T18:39:35.395Z,23
2018-09-13T18:49:40.292Z,24
2018-09-13T18:54:42.738Z,25
2018-09-13T18:59:45.172Z,26
2018-09-13T19:04:47.663Z,27
2018-09-13T19:09:50.085Z,27
2018-09-13T19:14:52.483Z,30
2018-09-13T19:19:54.977Z,29
2018-09-13T19:24:57.435Z,29
2018-09-13T19:29:59.816Z,28
2018-09-13T19:35:02.262Z,27
2018-09-13T19:40:04.749Z,27
2018-09-13T19:45:07.228Z,26
2018-09-13T19:50:09.576Z,24
2018-09-13T19:55:12.024Z,22
2018-09-13T20:00:14.483Z,23
2018-09-13T20:05:16.920Z,18
2018-09-13T20:10:19.358Z,15
2018-09-13T20:15:21.776Z,13
2018-09-13T20:20:24.244Z,13
2018-09-13T20:25:26.654Z,12
2018-09-13T20:30:29.092Z,12
2018-09-13T20:35:31.539Z,13
2018-09-13T20:40:33.991Z,13
2018-09-13T20:45:36.423Z,14
2018-09-13T20:50:38.864Z,15
2018-09-13T20:55:41.414Z,14
2018-09-13T21:00:43.866Z,14
2018-09-13T21:05:47.002Z,14
2018-09-13T21:10:48.606Z,15
2018-09-13T21:15:51.128Z,16
2018-09-13T21:20:53.649Z,16
2018-09-13T21:25:55.945Z,15
2018-09-13T21:30:58.392Z,16
2018-09-13T21:36:00.866Z,17
2018-09-13T21:41:03.257Z,17
2018-09-13T21:46:05.693Z,17
2018-09-13T21:51:08.251Z,18
2018-09-13T21:56:10.572Z,20
2018-09-13T22:01:13.034Z,19
2018-09-13T22:06:15.465Z,19
2018-09-13T22:11:17.979Z,18
2018-09-13T22:16:20.463Z,19
2018-09-13T22:21:22.820Z,20
2018-09-13T22:26:25.220Z,21
2018-09-13T22:31:27.674Z,22
2018-09-13T22:36:30.160Z,20
2018-09-13T22:41:32.570Z,21
2018-09-13T22:46:34.969Z,21
2018-09-13T22:51:37.564Z,21
2018-09-13T22:56:39.864Z,22
2018-09-13T23:01:42.529Z,22
2018-09-13T23:06:44.749Z,23
2018-09-13T23:11:47.194Z,22
2018-09-13T23:16:49.850Z,23
2018-09-13T23:21:52.184Z,23
2018-09-13T23:26:54.500Z,24
2018-09-13T23:31:56.976Z,24
2018-09-13T23:36:59.392Z,25
2018-09-13T23:42:01.920Z,25
2018-09-13T23:47:04.279Z,25
2018-09-13T23:52:06.709Z,25
2018-09-13T23:57:09.140Z,25
